Alorton, Illinois
Current Conditions -  °F | °C
As of 11:53 PM on Thursday 30 Oct 2014 (Local Time) from KCPS Reporting Station
Haze Haze  
Wind Chill: 45°   Ceiling: Unl
Heat Index: 47°   Visibility: 4mi
Dew Point: 46°   Wind: 5mph
Humidity: 97%   Direction: 290°WNW
Pressure: 30.04"   Gusts: NA
Location:  38.5841°N, 90.126°W
Report Text: KCPS 310453Z AUTO 29004KT 4SM BR CLR 08/08 A3004 RMK AO2 SLP174 T00830078
Loading
Personal Weather Stations






























Interactive Weather Map New forecast layout! Learn more

10-Day Weather Forecast

Advertisements
Track Severe Weather on mobile